This is the latest recevied weather packets stored in our database for station/object W1MJC. If no packets are shown the sender has not sent any weather packets the latest 10 day(s).
| Time | Temp. | Humidity | Pressure | Rain* | Wind** | Luminosity | Snow |
|---|---|---|---|---|---|---|---|
| 1777658724 | 8.33° C | 61% | 1011 hPa | 0 mm | - | - | - |
| 1777656322 | 9.44° C | 55% | 1010.7 hPa | 0 mm | - | - | - |
| 1777655131 | 8.33° C | 57% | 1010.9 hPa | 0 mm | - | - | - |
| 1777654517 | 8.33° C | 57% | 1010.8 hPa | 0 mm | - | - | - |
| 1777653940 | 9.44° C | 56% | 1010.9 hPa | 0 mm | - | - | - |
| 1777653325 | 8.33° C | 59% | 1010.9 hPa | 0 mm | - | - | - |
| 1777647946 | 7.78° C | 62% | 1010.8 hPa | 0 mm | - | - | - |
| 1777646120 | 8.89° C | 66% | 1010.9 hPa | 0 mm | - | - | - |
| 1777645544 | 7.78° C | 71% | 1010.9 hPa | 0 mm | - | - | - |
| 1777641317 | 6.67° C | 78% | 1010.8 hPa | 0 mm | - | - | - |
| 1777637718 | 3.89° C | 91% | 1010.6 hPa | 0 mm | - | - | - |
| 1777634719 | 3.89° C | 88% | 1010.5 hPa | 0 mm | - | - | - |
| 1777632318 | 3.89° C | 84% | 1010.3 hPa | 0 mm | - | - | - |
| 1777625722 | 4.44° C | 86% | 1009.8 hPa | 0 mm | - | - | - |
| 1777621516 | 5.56° C | 88% | 1010.7 hPa | 0 mm | - | - | - |
| 1777617944 | 5.56° C | 81% | 1010.7 hPa | 0 mm | - | - | - |
| 1777613125 | 6.11° C | 67% | 1010.6 hPa | 0 mm | - | - | - |
| 1777612518 | 6.11° C | 67% | 1010.9 hPa | 0 mm | - | - | - |
| 1777611922 | 6.67° C | 68% | 1011.2 hPa | 0 mm | - | - | - |
| 1777610738 | 6.67° C | 67% | 1011 hPa | 0 mm | - | - | - |
| 1777607733 | 6.67° C | 67% | 1011.4 hPa | 0 mm | - | - | - |
| 1777605927 | 7.22° C | 64% | 1011.4 hPa | 0 mm | - | - | - |
| 1777604121 | 7.22° C | 64% | 1011.6 hPa | 0 mm | - | - | - |
| 1777601719 | 7.22° C | 64% | 1011.5 hPa | 0 mm | - | - | - |
| 1777596360 | 8.89° C | 56% | 1010.6 hPa | 0 mm | - | - | - |
* Rain latest hour (hover to see other rain measurements)
** Current wind speed in m/s (hover to see current wind gust speed)